sensor_id;sensor_type;location;lat;lon;timestamp;P1;durP1;ratioP1;P2;durP2;ratioP2
8544;SDS011;4310;51.054;6.994;2022-11-11T00:00:37;32.05;;;29.85;;
8544;SDS011;4310;51.054;6.994;2022-11-11T00:01:41;32.75;;;30.80;;
8544;SDS011;4310;51.054;6.994;2022-11-11T00:02:45;31.27;;;29.30;;
8544;SDS011;4310;51.054;6.994;2022-11-11T00:03:53;32.55;;;30.25;;
8544;SDS011;4310;51.054;6.994;2022-11-11T00:04:55;31.95;;;29.75;;
8544;SDS011;4310;51.054;6.994;2022-11-11T00:07:13;32.45;;;30.55;;
8544;SDS011;4310;51.054;6.994;2022-11-11T00:08:17;34.67;;;32.48;;
8544;SDS011;4310;51.054;6.994;2022-11-11T00:09:21;35.38;;;32.78;;
8544;SDS011;4310;51.054;6.994;2022-11-11T00:10:24;33.58;;;31.17;;
8544;SDS011;4310;51.054;6.994;2022-11-11T00:12:40;35.43;;;33.13;;
8544;SDS011;4310;51.054;6.994;2022-11-11T00:13:43;35.90;;;33.50;;
8544;SDS011;4310;51.054;6.994;2022-11-11T00:14:47;34.80;;;32.63;;
8544;SDS011;4310;51.054;6.994;2022-11-11T00:15:51;33.05;;;30.85;;
8544;SDS011;4310;51.054;6.994;2022-11-11T00:16:55;33.10;;;30.80;;
8544;SDS011;4310;51.054;6.994;2022-11-11T00:18:16;31.25;;;29.10;;
8544;SDS011;4310;51.054;6.994;2022-11-11T00:19:38;31.95;;;29.75;;
8544;SDS011;4310;51.054;6.994;2022-11-11T00:20:59;32.98;;;30.72;;
8544;SDS011;4310;51.054;6.994;2022-11-11T00:23:42;32.08;;;29.92;;
8544;SDS011;4310;51.054;6.994;2022-11-11T00:25:05;31.17;;;29.20;;
8544;SDS011;4310;51.054;6.994;2022-11-11T00:26:09;30.60;;;28.40;;
8544;SDS011;4310;51.054;6.994;2022-11-11T00:27:13;30.52;;;28.40;;
8544;SDS011;4310;51.054;6.994;2022-11-11T00:28:18;31.87;;;29.72;;
8544;SDS011;4310;51.054;6.994;2022-11-11T00:30:39;30.90;;;28.77;;
8544;SDS011;4310;51.054;6.994;2022-11-11T00:31:43;32.00;;;29.90;;
8544;SDS011;4310;51.054;6.994;2022-11-11T00:33:06;31.65;;;29.60;;
8544;SDS011;4310;51.054;6.994;2022-11-11T00:34:09;32.80;;;30.48;;
8544;SDS011;4310;51.054;6.994;2022-11-11T00:35:13;33.92;;;31.62;;
8544;SDS011;4310;51.054;6.994;2022-11-11T00:36:35;33.65;;;31.55;;
8544;SDS011;4310;51.054;6.994;2022-11-11T00:37:39;35.38;;;32.98;;
8544;SDS011;4310;51.054;6.994;2022-11-11T00:38:43;34.70;;;32.48;;
8544;SDS011;4310;51.054;6.994;2022-11-11T00:40:58;32.23;;;30.12;;
8544;SDS011;4310;51.054;6.994;2022-11-11T00:42:03;33.23;;;31.12;;
8544;SDS011;4310;51.054;6.994;2022-11-11T00:45:29;33.20;;;31.00;;
8544;SDS011;4310;51.054;6.994;2022-11-11T00:46:33;33.78;;;31.57;;
8544;SDS011;4310;51.054;6.994;2022-11-11T00:47:55;36.30;;;33.95;;
8544;SDS011;4310;51.054;6.994;2022-11-11T00:49:16;39.45;;;36.90;;
8544;SDS011;4310;51.054;6.994;2022-11-11T00:50:38;38.33;;;35.73;;
8544;SDS011;4310;51.054;6.994;2022-11-11T00:52:00;41.25;;;38.75;;
8544;SDS011;4310;51.054;6.994;2022-11-11T00:53:09;38.53;;;36.23;;
8544;SDS011;4310;51.054;6.994;2022-11-11T00:54:09;41.25;;;38.73;;
8544;SDS011;4310;51.054;6.994;2022-11-11T00:55:13;41.93;;;39.40;;
8544;SDS011;4310;51.054;6.994;2022-11-11T00:56:17;36.98;;;34.67;;
8544;SDS011;4310;51.054;6.994;2022-11-11T00:57:21;42.70;;;39.88;;
8544;SDS011;4310;51.054;6.994;2022-11-11T00:59:36;42.23;;;39.55;;
8544;SDS011;4310;51.054;6.994;2022-11-11T01:00:41;44.60;;;42.05;;
8544;SDS011;4310;51.054;6.994;2022-11-11T01:01:45;40.25;;;37.83;;
8544;SDS011;4310;51.054;6.994;2022-11-11T01:02:49;42.17;;;39.40;;
8544;SDS011;4310;51.054;6.994;2022-11-11T01:03:52;40.45;;;38.02;;
8544;SDS011;4310;51.054;6.994;2022-11-11T01:04:56;37.73;;;35.43;;
8544;SDS011;4310;51.054;6.994;2022-11-11T01:06:00;38.65;;;36.03;;
8544;SDS011;4310;51.054;6.994;2022-11-11T01:07:04;37.88;;;35.50;;
8544;SDS011;4310;51.054;6.994;2022-11-11T01:09:19;38.30;;;35.88;;
8544;SDS011;4310;51.054;6.994;2022-11-11T01:10:23;38.17;;;35.63;;
8544;SDS011;4310;51.054;6.994;2022-11-11T01:11:43;38.53;;;35.98;;
8544;SDS011;4310;51.054;6.994;2022-11-11T01:12:46;35.90;;;33.55;;
8544;SDS011;4310;51.054;6.994;2022-11-11T01:13:50;37.50;;;35.17;;
8544;SDS011;4310;51.054;6.994;2022-11-11T01:14:54;37.60;;;35.30;;
8544;SDS011;4310;51.054;6.994;2022-11-11T01:15:59;37.40;;;35.10;;
8544;SDS011;4310;51.054;6.994;2022-11-11T01:18:15;36.68;;;34.08;;
8544;SDS011;4310;51.054;6.994;2022-11-11T01:19:19;39.33;;;37.03;;
8544;SDS011;4310;51.054;6.994;2022-11-11T01:20:22;40.23;;;37.67;;
8544;SDS011;4310;51.054;6.994;2022-11-11T01:21:26;37.60;;;35.20;;
8544;SDS011;4310;51.054;6.994;2022-11-11T01:22:30;38.83;;;36.40;;
8544;SDS011;4310;51.054;6.994;2022-11-11T01:23:34;41.10;;;38.63;;
8544;SDS011;4310;51.054;6.994;2022-11-11T01:24:38;38.70;;;36.23;;
8544;SDS011;4310;51.054;6.994;2022-11-11T01:25:41;38.05;;;35.63;;
8544;SDS011;4310;51.054;6.994;2022-11-11T01:26:45;37.87;;;35.40;;
8544;SDS011;4310;51.054;6.994;2022-11-11T01:27:49;37.80;;;35.25;;
8544;SDS011;4310;51.054;6.994;2022-11-11T01:28:53;38.85;;;36.25;;
8544;SDS011;4310;51.054;6.994;2022-11-11T01:29:57;37.70;;;35.40;;
8544;SDS011;4310;51.054;6.994;2022-11-11T01:31:02;36.20;;;33.80;;
8544;SDS011;4310;51.054;6.994;2022-11-11T01:32:05;39.27;;;36.80;;
8544;SDS011;4310;51.054;6.994;2022-11-11T01:33:10;37.40;;;35.10;;
8544;SDS011;4310;51.054;6.994;2022-11-11T01:34:13;36.83;;;34.50;;
8544;SDS011;4310;51.054;6.994;2022-11-11T01:35:17;38.50;;;35.92;;
8544;SDS011;4310;51.054;6.994;2022-11-11T01:36:22;39.48;;;36.95;;
8544;SDS011;4310;51.054;6.994;2022-11-11T01:37:26;38.65;;;36.45;;
8544;SDS011;4310;51.054;6.994;2022-11-11T01:38:29;40.12;;;37.40;;
8544;SDS011;4310;51.054;6.994;2022-11-11T01:40:45;39.63;;;37.10;;
8544;SDS011;4310;51.054;6.994;2022-11-11T01:41:49;41.08;;;38.53;;
8544;SDS011;4310;51.054;6.994;2022-11-11T01:43:12;39.88;;;37.23;;
8544;SDS011;4310;51.054;6.994;2022-11-11T01:43:59;39.65;;;37.35;;
8544;SDS011;4310;51.054;6.994;2022-11-11T01:46:27;41.13;;;38.60;;
8544;SDS011;4310;51.054;6.994;2022-11-11T01:47:32;38.28;;;35.92;;
8544;SDS011;4310;51.054;6.994;2022-11-11T01:50:08;38.90;;;36.48;;
8544;SDS011;4310;51.054;6.994;2022-11-11T01:51:13;40.10;;;37.70;;
8544;SDS011;4310;51.054;6.994;2022-11-11T01:52:18;41.28;;;38.88;;
8544;SDS011;4310;51.054;6.994;2022-11-11T01:53:22;40.95;;;38.48;;
8544;SDS011;4310;51.054;6.994;2022-11-11T01:54:28;41.00;;;38.63;;
8544;SDS011;4310;51.054;6.994;2022-11-11T01:55:32;40.60;;;37.93;;
8544;SDS011;4310;51.054;6.994;2022-11-11T01:56:35;40.63;;;38.23;;
8544;SDS011;4310;51.054;6.994;2022-11-11T01:57:41;41.53;;;38.98;;
8544;SDS011;4310;51.054;6.994;2022-11-11T01:59:57;41.33;;;38.63;;
8544;SDS011;4310;51.054;6.994;2022-11-11T02:01:02;41.00;;;38.35;;
8544;SDS011;4310;51.054;6.994;2022-11-11T02:02:08;42.45;;;39.92;;
8544;SDS011;4310;51.054;6.994;2022-11-11T02:03:12;42.38;;;40.08;;
8544;SDS011;4310;51.054;6.994;2022-11-11T02:04:16;42.70;;;40.03;;
8544;SDS011;4310;51.054;6.994;2022-11-11T02:05:39;43.52;;;41.05;;
8544;SDS011;4310;51.054;6.994;2022-11-11T02:06:57;44.73;;;41.92;;
8544;SDS011;4310;51.054;6.994;2022-11-11T02:08:03;44.30;;;41.60;;
8544;SDS011;4310;51.054;6.994;2022-11-11T02:09:07;42.62;;;40.20;;
8544;SDS011;4310;51.054;6.994;2022-11-11T02:10:11;42.73;;;40.20;;
8544;SDS011;4310;51.054;6.994;2022-11-11T02:11:15;43.83;;;41.18;;
8544;SDS011;4310;51.054;6.994;2022-11-11T02:12:22;42.03;;;39.53;;
8544;SDS011;4310;51.054;6.994;2022-11-11T02:14:57;45.52;;;42.95;;
8544;SDS011;4310;51.054;6.994;2022-11-11T02:17:13;44.80;;;42.08;;
8544;SDS011;4310;51.054;6.994;2022-11-11T02:18:18;44.67;;;42.17;;
8544;SDS011;4310;51.054;6.994;2022-11-11T02:19:22;46.25;;;43.78;;
8544;SDS011;4310;51.054;6.994;2022-11-11T02:20:28;45.98;;;43.23;;
8544;SDS011;4310;51.054;6.994;2022-11-11T02:21:34;45.25;;;42.65;;
8544;SDS011;4310;51.054;6.994;2022-11-11T02:22:47;45.65;;;42.90;;
8544;SDS011;4310;51.054;6.994;2022-11-11T02:23:43;45.40;;;42.67;;
8544;SDS011;4310;51.054;6.994;2022-11-11T02:24:48;45.67;;;42.90;;
8544;SDS011;4310;51.054;6.994;2022-11-11T02:27:03;44.15;;;41.65;;
8544;SDS011;4310;51.054;6.994;2022-11-11T02:28:08;43.23;;;40.70;;
8544;SDS011;4310;51.054;6.994;2022-11-11T02:29:12;42.53;;;40.12;;
8544;SDS011;4310;51.054;6.994;2022-11-11T02:30:17;42.73;;;40.23;;
8544;SDS011;4310;51.054;6.994;2022-11-11T02:31:24;45.33;;;42.33;;
8544;SDS011;4310;51.054;6.994;2022-11-11T02:32:28;43.23;;;40.60;;
8544;SDS011;4310;51.054;6.994;2022-11-11T02:33:32;42.75;;;40.08;;
8544;SDS011;4310;51.054;6.994;2022-11-11T02:34:35;44.67;;;42.03;;
8544;SDS011;4310;51.054;6.994;2022-11-11T02:35:41;42.43;;;39.78;;
8544;SDS011;4310;51.054;6.994;2022-11-11T02:36:55;43.00;;;40.52;;
8544;SDS011;4310;51.054;6.994;2022-11-11T02:37:59;43.25;;;40.63;;
8544;SDS011;4310;51.054;6.994;2022-11-11T02:39:08;42.33;;;39.92;;
8544;SDS011;4310;51.054;6.994;2022-11-11T02:40:12;46.08;;;43.28;;
8544;SDS011;4310;51.054;6.994;2022-11-11T02:41:17;49.27;;;46.20;;
8544;SDS011;4310;51.054;6.994;2022-11-11T02:43:50;47.55;;;44.75;;
8544;SDS011;4310;51.054;6.994;2022-11-11T02:44:53;44.93;;;42.33;;
8544;SDS011;4310;51.054;6.994;2022-11-11T02:45:59;47.00;;;44.15;;
8544;SDS011;4310;51.054;6.994;2022-11-11T02:47:02;48.23;;;45.52;;
8544;SDS011;4310;51.054;6.994;2022-11-11T02:48:06;49.75;;;47.05;;
8544;SDS011;4310;51.054;6.994;2022-11-11T02:49:10;49.95;;;47.15;;
8544;SDS011;4310;51.054;6.994;2022-11-11T02:50:14;49.95;;;47.10;;
8544;SDS011;4310;51.054;6.994;2022-11-11T02:51:18;49.85;;;47.15;;
8544;SDS011;4310;51.054;6.994;2022-11-11T02:52:22;45.92;;;43.25;;
8544;SDS011;4310;51.054;6.994;2022-11-11T02:53:25;47.13;;;44.23;;
8544;SDS011;4310;51.054;6.994;2022-11-11T02:54:30;47.88;;;45.28;;
8544;SDS011;4310;51.054;6.994;2022-11-11T02:55:33;46.02;;;43.50;;
8544;SDS011;4310;51.054;6.994;2022-11-11T02:56:37;46.00;;;43.30;;
8544;SDS011;4310;51.054;6.994;2022-11-11T02:57:59;46.55;;;43.92;;
8544;SDS011;4310;51.054;6.994;2022-11-11T02:59:03;46.65;;;43.90;;
8544;SDS011;4310;51.054;6.994;2022-11-11T03:00:08;50.05;;;47.38;;
8544;SDS011;4310;51.054;6.994;2022-11-11T03:01:11;46.28;;;43.78;;
8544;SDS011;4310;51.054;6.994;2022-11-11T03:02:17;45.73;;;43.33;;
8544;SDS011;4310;51.054;6.994;2022-11-11T03:04:32;47.85;;;44.88;;
8544;SDS011;4310;51.054;6.994;2022-11-11T03:05:36;46.33;;;43.75;;
8544;SDS011;4310;51.054;6.994;2022-11-11T03:06:40;48.63;;;45.63;;
8544;SDS011;4310;51.054;6.994;2022-11-11T03:07:44;46.02;;;43.33;;
8544;SDS011;4310;51.054;6.994;2022-11-11T03:09:59;40.50;;;38.00;;
8544;SDS011;4310;51.054;6.994;2022-11-11T03:12:14;42.90;;;40.35;;
8544;SDS011;4310;51.054;6.994;2022-11-11T03:13:18;45.00;;;42.30;;
8544;SDS011;4310;51.054;6.994;2022-11-11T03:14:25;43.50;;;41.15;;
8544;SDS011;4310;51.054;6.994;2022-11-11T03:16:40;44.75;;;42.25;;
8544;SDS011;4310;51.054;6.994;2022-11-11T03:18:01;42.53;;;40.05;;
8544;SDS011;4310;51.054;6.994;2022-11-11T03:19:06;42.43;;;39.92;;
8544;SDS011;4310;51.054;6.994;2022-11-11T03:20:10;41.77;;;39.25;;
8544;SDS011;4310;51.054;6.994;2022-11-11T03:21:33;42.85;;;40.45;;
8544;SDS011;4310;51.054;6.994;2022-11-11T03:22:36;44.27;;;41.28;;
8544;SDS011;4310;51.054;6.994;2022-11-11T03:23:40;43.08;;;40.28;;
8544;SDS011;4310;51.054;6.994;2022-11-11T03:24:44;43.45;;;40.85;;
8544;SDS011;4310;51.054;6.994;2022-11-11T03:26:06;45.38;;;42.78;;
8544;SDS011;4310;51.054;6.994;2022-11-11T03:27:11;46.35;;;43.75;;
8544;SDS011;4310;51.054;6.994;2022-11-11T03:28:16;47.50;;;44.77;;
8544;SDS011;4310;51.054;6.994;2022-11-11T03:29:26;47.13;;;44.47;;
8544;SDS011;4310;51.054;6.994;2022-11-11T03:30:29;48.10;;;45.43;;
8544;SDS011;4310;51.054;6.994;2022-11-11T03:31:33;48.68;;;45.98;;
8544;SDS011;4310;51.054;6.994;2022-11-11T03:32:38;46.53;;;43.80;;
8544;SDS011;4310;51.054;6.994;2022-11-11T03:33:42;46.02;;;43.35;;
8544;SDS011;4310;51.054;6.994;2022-11-11T03:35:57;46.58;;;43.87;;
8544;SDS011;4310;51.054;6.994;2022-11-11T03:37:01;45.05;;;42.33;;
8544;SDS011;4310;51.054;6.994;2022-11-11T03:39:34;44.80;;;42.23;;
8544;SDS011;4310;51.054;6.994;2022-11-11T03:40:38;45.15;;;42.55;;
8544;SDS011;4310;51.054;6.994;2022-11-11T03:41:42;45.08;;;42.60;;
8544;SDS011;4310;51.054;6.994;2022-11-11T03:42:46;44.83;;;42.15;;
8544;SDS011;4310;51.054;6.994;2022-11-11T03:43:49;44.13;;;41.50;;
8544;SDS011;4310;51.054;6.994;2022-11-11T03:44:53;45.85;;;43.05;;
8544;SDS011;4310;51.054;6.994;2022-11-11T03:45:57;46.60;;;43.95;;
8544;SDS011;4310;51.054;6.994;2022-11-11T03:47:01;45.65;;;42.98;;
8544;SDS011;4310;51.054;6.994;2022-11-11T03:48:05;45.28;;;42.78;;
8544;SDS011;4310;51.054;6.994;2022-11-11T03:49:09;48.90;;;46.08;;
8544;SDS011;4310;51.054;6.994;2022-11-11T03:51:24;48.50;;;45.92;;
8544;SDS011;4310;51.054;6.994;2022-11-11T03:52:28;48.30;;;45.70;;
8544;SDS011;4310;51.054;6.994;2022-11-11T03:53:31;46.83;;;44.30;;
8544;SDS011;4310;51.054;6.994;2022-11-11T03:54:35;50.03;;;47.38;;
8544;SDS011;4310;51.054;6.994;2022-11-11T03:55:39;47.70;;;45.05;;
8544;SDS011;4310;51.054;6.994;2022-11-11T03:57:54;47.62;;;45.03;;
8544;SDS011;4310;51.054;6.994;2022-11-11T03:58:58;48.92;;;45.95;;
8544;SDS011;4310;51.054;6.994;2022-11-11T04:00:02;46.65;;;43.90;;
8544;SDS011;4310;51.054;6.994;2022-11-11T04:01:06;48.33;;;45.63;;
8544;SDS011;4310;51.054;6.994;2022-11-11T04:02:12;49.63;;;46.68;;
8544;SDS011;4310;51.054;6.994;2022-11-11T04:03:34;47.53;;;44.83;;
8544;SDS011;4310;51.054;6.994;2022-11-11T04:06:20;48.90;;;46.10;;
8544;SDS011;4310;51.054;6.994;2022-11-11T04:07:42;47.85;;;45.03;;
8544;SDS011;4310;51.054;6.994;2022-11-11T04:09:06;46.70;;;44.10;;
8544;SDS011;4310;51.054;6.994;2022-11-11T04:10:28;49.38;;;46.37;;
8544;SDS011;4310;51.054;6.994;2022-11-11T04:11:32;48.58;;;45.98;;
8544;SDS011;4310;51.054;6.994;2022-11-11T04:12:37;45.83;;;43.13;;
8544;SDS011;4310;51.054;6.994;2022-11-11T04:14:02;47.13;;;44.45;;
8544;SDS011;4310;51.054;6.994;2022-11-11T04:16:35;47.85;;;45.10;;
8544;SDS011;4310;51.054;6.994;2022-11-11T04:17:39;47.20;;;44.48;;
8544;SDS011;4310;51.054;6.994;2022-11-11T04:18:42;48.28;;;45.58;;
8544;SDS011;4310;51.054;6.994;2022-11-11T04:20:05;48.83;;;45.83;;
8544;SDS011;4310;51.054;6.994;2022-11-11T04:21:27;48.28;;;45.67;;
8544;SDS011;4310;51.054;6.994;2022-11-11T04:22:46;44.95;;;42.25;;
8544;SDS011;4310;51.054;6.994;2022-11-11T04:23:50;45.45;;;42.78;;
8544;SDS011;4310;51.054;6.994;2022-11-11T04:26:05;44.93;;;42.33;;
8544;SDS011;4310;51.054;6.994;2022-11-11T04:27:09;46.37;;;43.68;;
8544;SDS011;4310;51.054;6.994;2022-11-11T04:28:13;46.92;;;44.53;;
8544;SDS011;4310;51.054;6.994;2022-11-11T04:29:35;50.28;;;47.48;;
8544;SDS011;4310;51.054;6.994;2022-11-11T04:30:39;45.43;;;42.88;;
8544;SDS011;4310;51.054;6.994;2022-11-11T04:31:43;44.70;;;42.15;;
8544;SDS011;4310;51.054;6.994;2022-11-11T04:33:06;45.12;;;42.53;;
8544;SDS011;4310;51.054;6.994;2022-11-11T04:34:09;42.20;;;39.67;;
8544;SDS011;4310;51.054;6.994;2022-11-11T04:35:14;43.17;;;40.58;;
8544;SDS011;4310;51.054;6.994;2022-11-11T04:37:30;43.42;;;40.90;;
8544;SDS011;4310;51.054;6.994;2022-11-11T04:38:35;43.17;;;40.67;;
8544;SDS011;4310;51.054;6.994;2022-11-11T04:39:56;40.98;;;38.60;;
8544;SDS011;4310;51.054;6.994;2022-11-11T04:41:18;43.60;;;41.20;;
8544;SDS011;4310;51.054;6.994;2022-11-11T04:42:21;43.30;;;41.00;;
8544;SDS011;4310;51.054;6.994;2022-11-11T04:43:25;43.35;;;40.75;;
8544;SDS011;4310;51.054;6.994;2022-11-11T04:44:29;43.13;;;40.73;;
8544;SDS011;4310;51.054;6.994;2022-11-11T04:45:51;43.68;;;41.08;;
8544;SDS011;4310;51.054;6.994;2022-11-11T04:46:54;43.00;;;40.48;;
8544;SDS011;4310;51.054;6.994;2022-11-11T04:49:10;40.75;;;38.35;;
8544;SDS011;4310;51.054;6.994;2022-11-11T04:50:14;43.55;;;41.05;;
8544;SDS011;4310;51.054;6.994;2022-11-11T04:51:17;43.05;;;40.40;;
8544;SDS011;4310;51.054;6.994;2022-11-11T04:52:21;43.58;;;41.08;;
8544;SDS011;4310;51.054;6.994;2022-11-11T04:53:28;43.95;;;41.23;;
8544;SDS011;4310;51.054;6.994;2022-11-11T04:54:31;42.00;;;39.65;;
8544;SDS011;4310;51.054;6.994;2022-11-11T04:55:37;42.15;;;39.67;;
8544;SDS011;4310;51.054;6.994;2022-11-11T04:56:59;42.23;;;39.63;;
8544;SDS011;4310;51.054;6.994;2022-11-11T04:58:02;40.88;;;38.35;;
8544;SDS011;4310;51.054;6.994;2022-11-11T04:59:06;40.63;;;38.28;;
8544;SDS011;4310;51.054;6.994;2022-11-11T05:01:30;41.23;;;38.78;;
8544;SDS011;4310;51.054;6.994;2022-11-11T05:04:14;44.63;;;41.98;;
8544;SDS011;4310;51.054;6.994;2022-11-11T05:05:18;42.55;;;40.20;;
8544;SDS011;4310;51.054;6.994;2022-11-11T05:07:33;44.48;;;41.80;;
8544;SDS011;4310;51.054;6.994;2022-11-11T05:08:55;43.28;;;40.67;;
8544;SDS011;4310;51.054;6.994;2022-11-11T05:09:58;42.27;;;39.85;;
8544;SDS011;4310;51.054;6.994;2022-11-11T05:11:02;41.53;;;39.30;;
8544;SDS011;4310;51.054;6.994;2022-11-11T05:12:06;45.20;;;42.60;;
8544;SDS011;4310;51.054;6.994;2022-11-11T05:13:10;44.58;;;42.03;;
8544;SDS011;4310;51.054;6.994;2022-11-11T05:14:31;42.73;;;40.23;;
8544;SDS011;4310;51.054;6.994;2022-11-11T05:15:53;43.65;;;41.10;;
8544;SDS011;4310;51.054;6.994;2022-11-11T05:17:14;41.58;;;39.13;;
8544;SDS011;4310;51.054;6.994;2022-11-11T05:18:36;41.37;;;38.98;;
8544;SDS011;4310;51.054;6.994;2022-11-11T05:19:58;39.73;;;37.50;;
8544;SDS011;4310;51.054;6.994;2022-11-11T05:21:21;40.65;;;38.35;;
8544;SDS011;4310;51.054;6.994;2022-11-11T05:22:26;41.40;;;38.92;;
8544;SDS011;4310;51.054;6.994;2022-11-11T05:23:30;41.85;;;39.48;;
8544;SDS011;4310;51.054;6.994;2022-11-11T05:24:53;44.08;;;41.28;;
8544;SDS011;4310;51.054;6.994;2022-11-11T05:26:14;44.05;;;41.45;;
8544;SDS011;4310;51.054;6.994;2022-11-11T05:28:29;43.45;;;41.08;;
8544;SDS011;4310;51.054;6.994;2022-11-11T05:29:33;44.15;;;41.65;;
8544;SDS011;4310;51.054;6.994;2022-11-11T05:30:37;40.63;;;38.30;;
8544;SDS011;4310;51.054;6.994;2022-11-11T05:31:42;41.77;;;39.13;;
8544;SDS011;4310;51.054;6.994;2022-11-11T05:32:46;42.58;;;39.88;;
8544;SDS011;4310;51.054;6.994;2022-11-11T05:33:50;42.43;;;39.65;;
8544;SDS011;4310;51.054;6.994;2022-11-11T05:34:54;41.37;;;38.98;;
8544;SDS011;4310;51.054;6.994;2022-11-11T05:35:57;41.65;;;39.23;;
8544;SDS011;4310;51.054;6.994;2022-11-11T05:38:13;39.98;;;37.53;;
8544;SDS011;4310;51.054;6.994;2022-11-11T05:39:23;38.38;;;36.10;;
8544;SDS011;4310;51.054;6.994;2022-11-11T05:40:27;40.35;;;38.02;;
8544;SDS011;4310;51.054;6.994;2022-11-11T05:41:30;40.12;;;37.88;;
8544;SDS011;4310;51.054;6.994;2022-11-11T05:42:34;41.30;;;38.90;;
8544;SDS011;4310;51.054;6.994;2022-11-11T05:43:38;41.02;;;38.73;;
8544;SDS011;4310;51.054;6.994;2022-11-11T05:44:41;41.58;;;39.13;;
8544;SDS011;4310;51.054;6.994;2022-11-11T05:45:45;40.40;;;38.15;;
8544;SDS011;4310;51.054;6.994;2022-11-11T05:48:01;42.75;;;40.25;;
8544;SDS011;4310;51.054;6.994;2022-11-11T05:49:04;42.50;;;40.00;;
8544;SDS011;4310;51.054;6.994;2022-11-11T05:51:29;43.30;;;40.60;;
8544;SDS011;4310;51.054;6.994;2022-11-11T05:52:32;42.20;;;39.70;;
8544;SDS011;4310;51.054;6.994;2022-11-11T05:53:36;41.50;;;39.05;;
8544;SDS011;4310;51.054;6.994;2022-11-11T05:54:40;40.45;;;37.90;;
8544;SDS011;4310;51.054;6.994;2022-11-11T05:55:44;39.38;;;36.88;;
8544;SDS011;4310;51.054;6.994;2022-11-11T05:56:47;37.53;;;35.30;;
8544;SDS011;4310;51.054;6.994;2022-11-11T05:57:51;39.88;;;37.35;;
8544;SDS011;4310;51.054;6.994;2022-11-11T06:00:08;41.50;;;39.20;;
8544;SDS011;4310;51.054;6.994;2022-11-11T06:01:12;39.25;;;36.77;;
8544;SDS011;4310;51.054;6.994;2022-11-11T06:02:16;40.80;;;38.00;;
8544;SDS011;4310;51.054;6.994;2022-11-11T06:03:19;40.20;;;37.75;;
8544;SDS011;4310;51.054;6.994;2022-11-11T06:04:23;39.53;;;37.33;;
8544;SDS011;4310;51.054;6.994;2022-11-11T06:06:38;35.30;;;33.20;;
8544;SDS011;4310;51.054;6.994;2022-11-11T06:07:42;34.70;;;32.65;;
8544;SDS011;4310;51.054;6.994;2022-11-11T06:08:46;32.73;;;30.70;;
8544;SDS011;4310;51.054;6.994;2022-11-11T06:09:50;35.03;;;32.83;;
8544;SDS011;4310;51.054;6.994;2022-11-11T06:10:53;34.70;;;32.53;;
8544;SDS011;4310;51.054;6.994;2022-11-11T06:11:57;34.23;;;32.33;;
8544;SDS011;4310;51.054;6.994;2022-11-11T06:13:01;34.98;;;32.88;;
8544;SDS011;4310;51.054;6.994;2022-11-11T06:14:06;34.33;;;32.03;;
8544;SDS011;4310;51.054;6.994;2022-11-11T06:15:10;35.00;;;32.80;;
8544;SDS011;4310;51.054;6.994;2022-11-11T06:16:14;35.75;;;33.58;;
8544;SDS011;4310;51.054;6.994;2022-11-11T06:17:17;33.78;;;31.77;;
8544;SDS011;4310;51.054;6.994;2022-11-11T06:18:21;36.70;;;34.50;;
8544;SDS011;4310;51.054;6.994;2022-11-11T06:20:36;34.67;;;32.38;;
8544;SDS011;4310;51.054;6.994;2022-11-11T06:21:40;31.27;;;29.35;;
8544;SDS011;4310;51.054;6.994;2022-11-11T06:23:00;33.33;;;31.33;;
8544;SDS011;4310;51.054;6.994;2022-11-11T06:24:04;34.27;;;32.00;;
8544;SDS011;4310;51.054;6.994;2022-11-11T06:25:08;36.53;;;34.40;;
8544;SDS011;4310;51.054;6.994;2022-11-11T06:26:29;36.23;;;34.05;;
8544;SDS011;4310;51.054;6.994;2022-11-11T06:27:33;38.48;;;36.17;;
8544;SDS011;4310;51.054;6.994;2022-11-11T06:28:37;38.80;;;36.57;;
8544;SDS011;4310;51.054;6.994;2022-11-11T06:29:40;37.65;;;35.35;;
8544;SDS011;4310;51.054;6.994;2022-11-11T06:30:44;39.45;;;37.05;;
8544;SDS011;4310;51.054;6.994;2022-11-11T06:31:48;36.93;;;34.78;;
8544;SDS011;4310;51.054;6.994;2022-11-11T06:34:03;37.13;;;34.83;;
8544;SDS011;4310;51.054;6.994;2022-11-11T06:36:19;39.60;;;37.20;;
8544;SDS011;4310;51.054;6.994;2022-11-11T06:37:23;40.45;;;38.08;;
8544;SDS011;4310;51.054;6.994;2022-11-11T06:38:27;42.58;;;39.92;;
8544;SDS011;4310;51.054;6.994;2022-11-11T06:39:31;41.02;;;38.48;;
8544;SDS011;4310;51.054;6.994;2022-11-11T06:40:35;41.33;;;38.90;;
8544;SDS011;4310;51.054;6.994;2022-11-11T06:41:38;43.00;;;40.60;;
8544;SDS011;4310;51.054;6.994;2022-11-11T06:42:42;40.12;;;37.78;;
8544;SDS011;4310;51.054;6.994;2022-11-11T06:43:46;44.50;;;42.08;;
8544;SDS011;4310;51.054;6.994;2022-11-11T06:44:50;46.35;;;43.85;;
8544;SDS011;4310;51.054;6.994;2022-11-11T06:45:53;46.80;;;44.00;;
8544;SDS011;4310;51.054;6.994;2022-11-11T06:46:57;44.40;;;42.03;;
8544;SDS011;4310;51.054;6.994;2022-11-11T06:48:01;43.90;;;41.25;;
8544;SDS011;4310;51.054;6.994;2022-11-11T06:49:05;45.08;;;42.53;;
8544;SDS011;4310;51.054;6.994;2022-11-11T06:50:09;45.85;;;43.15;;
8544;SDS011;4310;51.054;6.994;2022-11-11T06:51:13;46.20;;;43.68;;
8544;SDS011;4310;51.054;6.994;2022-11-11T06:52:17;47.03;;;44.38;;
8544;SDS011;4310;51.054;6.994;2022-11-11T06:53:21;44.20;;;41.68;;
8544;SDS011;4310;51.054;6.994;2022-11-11T06:56:47;41.80;;;39.55;;
8544;SDS011;4310;51.054;6.994;2022-11-11T06:57:51;42.00;;;39.65;;
8544;SDS011;4310;51.054;6.994;2022-11-11T06:58:54;42.38;;;39.88;;
8544;SDS011;4310;51.054;6.994;2022-11-11T06:59:59;39.30;;;37.17;;
8544;SDS011;4310;51.054;6.994;2022-11-11T07:01:03;38.20;;;35.92;;
8544;SDS011;4310;51.054;6.994;2022-11-11T07:02:08;39.48;;;37.08;;
8544;SDS011;4310;51.054;6.994;2022-11-11T07:03:13;40.70;;;38.40;;
8544;SDS011;4310;51.054;6.994;2022-11-11T07:04:17;39.10;;;36.77;;
8544;SDS011;4310;51.054;6.994;2022-11-11T07:05:21;40.70;;;38.25;;
8544;SDS011;4310;51.054;6.994;2022-11-11T07:06:24;39.08;;;36.88;;
8544;SDS011;4310;51.054;6.994;2022-11-11T07:07:28;39.65;;;37.25;;
8544;SDS011;4310;51.054;6.994;2022-11-11T07:09:44;36.08;;;33.98;;
8544;SDS011;4310;51.054;6.994;2022-11-11T07:10:48;37.95;;;35.85;;
8544;SDS011;4310;51.054;6.994;2022-11-11T07:11:51;39.70;;;37.30;;
8544;SDS011;4310;51.054;6.994;2022-11-11T07:12:55;41.18;;;38.70;;
8544;SDS011;4310;51.054;6.994;2022-11-11T07:13:59;38.17;;;35.95;;
8544;SDS011;4310;51.054;6.994;2022-11-11T07:15:03;39.35;;;37.05;;
8544;SDS011;4310;51.054;6.994;2022-11-11T07:16:07;36.65;;;34.45;;
8544;SDS011;4310;51.054;6.994;2022-11-11T07:18:23;39.33;;;37.13;;
8544;SDS011;4310;51.054;6.994;2022-11-11T07:19:27;37.20;;;34.98;;
8544;SDS011;4310;51.054;6.994;2022-11-11T07:20:31;37.33;;;34.92;;
8544;SDS011;4310;51.054;6.994;2022-11-11T07:21:34;34.03;;;31.77;;
8544;SDS011;4310;51.054;6.994;2022-11-11T07:22:38;36.77;;;34.53;;
8544;SDS011;4310;51.054;6.994;2022-11-11T07:23:42;37.13;;;34.98;;
8544;SDS011;4310;51.054;6.994;2022-11-11T07:24:45;34.80;;;32.45;;
8544;SDS011;4310;51.054;6.994;2022-11-11T07:25:49;34.98;;;32.90;;
8544;SDS011;4310;51.054;6.994;2022-11-11T07:26:53;35.78;;;33.35;;
8544;SDS011;4310;51.054;6.994;2022-11-11T07:27:57;35.47;;;33.33;;
8544;SDS011;4310;51.054;6.994;2022-11-11T07:30:12;33.35;;;31.30;;
8544;SDS011;4310;51.054;6.994;2022-11-11T07:31:17;31.12;;;29.23;;
8544;SDS011;4310;51.054;6.994;2022-11-11T07:32:21;32.05;;;30.00;;
8544;SDS011;4310;51.054;6.994;2022-11-11T07:33:25;30.48;;;28.65;;
8544;SDS011;4310;51.054;6.994;2022-11-11T07:35:41;29.23;;;27.35;;
8544;SDS011;4310;51.054;6.994;2022-11-11T07:36:45;29.40;;;27.42;;
8544;SDS011;4310;51.054;6.994;2022-11-11T07:37:48;28.65;;;26.87;;
8544;SDS011;4310;51.054;6.994;2022-11-11T07:38:52;28.12;;;26.35;;
8544;SDS011;4310;51.054;6.994;2022-11-11T07:39:56;27.55;;;25.52;;
8544;SDS011;4310;51.054;6.994;2022-11-11T07:41:00;26.85;;;25.15;;